createdAt,value
2018-09-01T00:01:15.928Z,78.50
2018-09-01T00:03:45.399Z,79.10
2018-09-01T00:06:15.496Z,79.20
2018-09-01T00:08:45.185Z,79.20
2018-09-01T00:11:14.504Z,79.20
2018-09-01T00:13:44.241Z,79.30
2018-09-01T00:16:15.171Z,79.20
2018-09-01T00:18:46.089Z,79.30
2018-09-01T00:21:15.849Z,79.20
2018-09-01T00:23:46.470Z,79.10
2018-09-01T00:26:17.145Z,79.00
2018-09-01T00:28:47.271Z,79.10
2018-09-01T00:31:16.731Z,79.10
2018-09-01T00:33:46.924Z,79.00
2018-09-01T00:36:17.049Z,78.90
2018-09-01T00:38:52.250Z,78.90
2018-09-01T00:41:21.807Z,78.40
2018-09-01T00:43:51.652Z,78.40
2018-09-01T00:46:21.844Z,78.60
2018-09-01T00:48:51.702Z,78.60
2018-09-01T00:51:22.254Z,78.60
2018-09-01T00:53:52.634Z,77.80
2018-09-01T00:56:22.610Z,77.60
2018-09-01T00:58:54.797Z,77.70
2018-09-01T01:01:25.212Z,77.80
2018-09-01T01:03:55.068Z,77.40
2018-09-01T01:06:25.138Z,77.00
2018-09-01T01:09:01.173Z,77.30
2018-09-01T01:11:31.149Z,77.40
2018-09-01T01:14:01.019Z,77.60
2018-09-01T01:16:39.411Z,78.40
2018-09-01T01:22:25.550Z,78.70
2018-09-01T01:24:56.464Z,78.60
2018-09-01T01:27:29.081Z,78.10
2018-09-01T01:29:59.986Z,78.70
2018-09-01T01:32:31.730Z,78.50
2018-09-01T01:35:05.264Z,78.70
2018-09-01T01:37:36.284Z,77.70
2018-09-01T01:40:06.805Z,78.10
2018-09-01T01:42:36.944Z,78.40
2018-09-01T01:45:06.747Z,78.20
2018-09-01T01:47:42.088Z,78.30
2018-09-01T01:50:12.411Z,78.60
2018-09-01T01:52:42.121Z,78.70
2018-09-01T01:55:11.944Z,78.60
2018-09-01T01:57:48.306Z,78.70
2018-09-01T02:00:18.731Z,78.70
2018-09-01T02:02:49.390Z,78.60
2018-09-01T02:05:22.082Z,78.60
2018-09-01T02:07:52.100Z,78.40
2018-09-01T02:10:22.374Z,78.30
2018-09-01T02:12:52.481Z,78.30
2018-09-01T02:15:31.843Z,78.50
2018-09-01T02:18:01.626Z,78.40
2018-09-01T02:20:31.421Z,78.50
2018-09-01T02:23:01.506Z,78.40
2018-09-01T02:25:31.446Z,78.60
2018-09-01T02:28:01.220Z,78.60
2018-09-01T02:30:31.297Z,78.40
2018-09-01T02:33:01.260Z,78.40
2018-09-01T02:38:09.568Z,78.40
2018-09-01T02:40:40.995Z,78.30
2018-09-01T02:43:13.183Z,78.20
2018-09-01T02:45:44.330Z,78.00
2018-09-01T02:48:16.928Z,78.00
2018-09-01T02:50:48.592Z,78.00
2018-09-01T02:53:21.424Z,78.10
2018-09-01T02:55:53.091Z,78.20
2018-09-01T02:58:24.421Z,78.20
2018-09-01T03:01:00.596Z,78.30
2018-09-01T03:03:30.182Z,78.30
2018-09-01T03:06:01.628Z,78.40
2018-09-01T03:08:31.372Z,78.50
2018-09-01T03:11:01.207Z,78.20
2018-09-01T03:13:31.149Z,78.20
2018-09-01T03:16:00.962Z,78.20
2018-09-01T03:18:30.691Z,78.30
2018-09-01T03:21:01.374Z,78.30
2018-09-01T03:23:31.523Z,78.50
2018-09-01T03:26:01.415Z,78.50
2018-09-01T03:28:31.325Z,78.60
2018-09-01T03:31:00.999Z,78.60
2018-09-01T03:33:31.672Z,78.60
2018-09-01T03:36:02.202Z,78.60
2018-09-01T03:38:31.797Z,78.60
2018-09-01T03:41:01.816Z,78.50
2018-09-01T03:43:31.388Z,78.50
2018-09-01T03:46:00.922Z,78.50
2018-09-01T03:48:30.525Z,78.60
2018-09-01T03:51:00.544Z,78.80
2018-09-01T03:53:30.500Z,78.80
2018-09-01T03:56:00.742Z,78.90
2018-09-01T03:58:30.618Z,79.00
2018-09-01T04:01:02.541Z,78.90
2018-09-01T04:03:32.829Z,78.90
2018-09-01T04:06:02.772Z,78.80
2018-09-01T04:08:32.609Z,78.70
2018-09-01T04:11:04.872Z,78.50
2018-09-01T04:13:35.201Z,78.70
2018-09-01T04:16:04.960Z,78.70
2018-09-01T04:18:35.847Z,78.50
2018-09-01T04:21:06.227Z,78.60
2018-09-01T04:23:36.226Z,78.50
2018-09-01T04:26:04.684Z,78.30
2018-09-01T04:28:33.461Z,78.30
2018-09-01T04:31:02.153Z,78.30
2018-09-01T04:33:33.067Z,78.30
2018-09-01T04:36:01.540Z,78.20
2018-09-01T04:38:29.969Z,78.20
2018-09-01T04:40:59.892Z,78.20
2018-09-01T04:43:28.446Z,78.10
2018-09-01T04:45:56.907Z,78.20
2018-09-01T04:48:25.359Z,78.10
2018-09-01T04:50:53.756Z,78.20
2018-09-01T04:53:22.173Z,78.20
2018-09-01T04:55:51.271Z,78.20
2018-09-01T04:58:19.805Z,78.20
2018-09-01T05:00:48.331Z,78.10
2018-09-01T05:03:16.941Z,78.00
2018-09-01T05:05:46.224Z,78.00
2018-09-01T05:08:16.575Z,78.00
2018-09-01T05:11:05.583Z,78.10
2018-09-01T05:13:34.065Z,77.90
2018-09-01T05:19:21.873Z,77.50
2018-09-01T05:21:54.973Z,77.50
2018-09-01T05:24:30.916Z,77.40
2018-09-01T05:27:01.283Z,77.20
2018-09-01T05:29:32.546Z,77.20
2018-09-01T05:32:03.206Z,77.10
2018-09-01T05:34:35.031Z,77.20
2018-09-01T05:37:06.393Z,77.10
2018-09-01T05:39:37.764Z,76.90
2018-09-01T05:42:07.521Z,76.80
2018-09-01T05:44:40.084Z,76.70
2018-09-01T05:47:14.302Z,76.50
2018-09-01T05:49:44.842Z,76.20
2018-09-01T05:52:15.675Z,76.00
2018-09-01T05:54:46.096Z,75.70
2018-09-01T05:57:16.173Z,76.00
2018-09-01T05:59:46.896Z,76.60
2018-09-01T06:02:16.706Z,76.80
2018-09-01T06:04:46.739Z,76.60
2018-09-01T06:07:18.954Z,76.60
2018-09-01T06:09:48.984Z,76.60
2018-09-01T06:12:19.385Z,76.80
2018-09-01T06:14:51.418Z,76.60
2018-09-01T06:17:22.825Z,76.60
2018-09-01T06:19:53.672Z,76.50
2018-09-01T06:22:24.117Z,75.50
2018-09-01T06:24:54.579Z,75.30
2018-09-01T06:27:30.073Z,75.60
2018-09-01T06:30:00.580Z,75.90
2018-09-01T06:32:31.294Z,76.20
2018-09-01T06:35:01.965Z,76.10
2018-09-01T06:37:33.571Z,75.50
2018-09-01T06:40:04.288Z,75.30
2018-09-01T06:42:34.757Z,75.60
2018-09-01T06:45:05.026Z,75.90
2018-09-01T06:47:34.985Z,76.00
2018-09-01T06:50:06.447Z,75.80
2018-09-01T06:52:36.873Z,75.60
2018-09-01T06:55:07.551Z,75.60
2018-09-01T06:57:42.930Z,75.40
2018-09-01T07:00:24.408Z,75.40
2018-09-01T07:02:56.453Z,75.80
2018-09-01T07:05:27.202Z,75.20
2018-09-01T07:08:02.237Z,75.50
2018-09-01T07:10:36.212Z,75.30
2018-09-01T07:13:06.661Z,75.20
2018-09-01T07:15:36.874Z,74.90
2018-09-01T07:18:06.967Z,75.00
2018-09-01T07:20:36.342Z,75.00
2018-09-01T07:23:06.444Z,75.00
2018-09-01T07:25:36.265Z,74.50
2018-09-01T07:28:07.661Z,73.90
2018-09-01T07:30:38.971Z,73.70
2018-09-01T07:33:09.176Z,73.60
2018-09-01T07:35:44.231Z,73.20
2018-09-01T07:38:13.589Z,73.10
2018-09-01T07:40:43.999Z,72.90
2018-09-01T07:43:13.952Z,73.00
2018-09-01T07:45:43.875Z,72.90
2018-09-01T07:48:13.616Z,72.10
2018-09-01T07:50:43.394Z,71.10
2018-09-01T07:53:13.303Z,71.30
2018-09-01T07:55:43.241Z,69.10
2018-09-01T07:58:13.040Z,70.00
2018-09-01T08:00:42.740Z,70.00
2018-09-01T08:03:12.343Z,70.50
2018-09-01T08:05:42.144Z,71.00
2018-09-01T08:08:12.115Z,68.70
2018-09-01T08:10:42.500Z,68.70
2018-09-01T08:13:12.932Z,69.60
2018-09-01T08:15:43.354Z,69.30
2018-09-01T08:18:13.204Z,70.50
2018-09-01T08:20:42.336Z,71.50
2018-09-01T08:23:11.934Z,70.50
2018-09-01T08:25:41.813Z,71.10
2018-09-01T08:28:11.857Z,71.20
2018-09-01T08:30:41.134Z,70.60
2018-09-01T08:33:11.425Z,69.60
2018-09-01T08:35:40.661Z,69.00
2018-09-01T08:38:09.972Z,69.80
2018-09-01T08:40:38.941Z,69.20
2018-09-01T08:43:08.854Z,69.30
2018-09-01T08:45:37.933Z,69.60
2018-09-01T08:48:07.942Z,66.90
2018-09-01T08:50:37.458Z,66.60
2018-09-01T08:53:06.714Z,67.70
2018-09-01T08:55:37.867Z,67.80
2018-09-01T08:58:07.433Z,68.10
2018-09-01T09:00:36.797Z,67.70
2018-09-01T09:03:06.210Z,65.50
2018-09-01T09:05:36.159Z,64.40
2018-09-01T09:08:05.304Z,65.00
2018-09-01T09:10:35.288Z,66.10
2018-09-01T09:13:04.212Z,65.90
2018-09-01T09:15:33.653Z,65.20
2018-09-01T09:18:02.404Z,65.60
2018-09-01T09:20:31.853Z,64.90
2018-09-01T09:23:03.018Z,64.90
2018-09-01T09:25:32.441Z,64.80
2018-09-01T09:28:01.936Z,65.00
2018-09-01T09:30:31.470Z,65.70
2018-09-01T09:33:00.248Z,64.60
2018-09-01T09:35:35.658Z,65.30
2018-09-01T09:38:05.325Z,66.10
2018-09-01T09:40:34.557Z,66.60
2018-09-01T09:43:04.449Z,67.00
2018-09-01T09:45:34.145Z,66.00
2018-09-01T09:48:02.822Z,65.50
2018-09-01T09:50:32.058Z,65.70
2018-09-01T09:53:00.916Z,67.20
2018-09-01T09:55:30.325Z,66.50
2018-09-01T09:57:59.580Z,67.70
2018-09-01T10:00:35.193Z,66.30
2018-09-01T10:03:04.430Z,65.50
2018-09-01T10:05:33.758Z,65.80
2018-09-01T10:08:03.480Z,65.20
2018-09-01T10:10:33.640Z,64.10
2018-09-01T10:13:02.418Z,65.00
2018-09-01T10:15:32.474Z,64.90
2018-09-01T10:18:02.142Z,66.10
2018-09-01T10:20:32.444Z,66.40
2018-09-01T10:23:02.143Z,66.40
2018-09-01T10:25:32.044Z,67.60
2018-09-01T10:28:01.876Z,67.00
2018-09-01T10:30:31.296Z,67.60
2018-09-01T10:33:01.445Z,67.80
2018-09-01T10:35:37.308Z,68.90
2018-09-01T10:38:06.191Z,69.40
2018-09-01T10:40:41.977Z,69.60
2018-09-01T10:43:11.859Z,69.20
2018-09-01T10:45:42.194Z,67.80
2018-09-01T10:48:23.484Z,68.10
2018-09-01T10:50:53.663Z,68.10
2018-09-01T10:53:24.315Z,67.50
2018-09-01T10:55:54.757Z,69.00
2018-09-01T10:58:26.405Z,68.80
2018-09-01T11:01:03.119Z,69.30
2018-09-01T11:03:32.778Z,69.30
2018-09-01T11:06:06.046Z,69.70
2018-09-01T11:08:36.188Z,67.80
2018-09-01T11:11:10.478Z,67.10
2018-09-01T11:13:40.522Z,66.70
2018-09-01T11:16:11.516Z,66.50
2018-09-01T11:18:41.547Z,65.50
2018-09-01T11:21:11.441Z,64.30
2018-09-01T11:23:42.201Z,65.10
2018-09-01T11:26:12.510Z,64.20
2018-09-01T11:28:42.992Z,63.90
2018-09-01T11:31:14.080Z,63.30
2018-09-01T11:33:45.146Z,64.00
2018-09-01T11:36:15.221Z,62.90
2018-09-01T11:38:45.637Z,62.70
2018-09-01T11:41:19.477Z,62.40
2018-09-01T11:43:49.350Z,63.00
2018-09-01T11:46:19.112Z,62.00
2018-09-01T11:48:49.333Z,61.40
2018-09-01T11:51:20.357Z,60.80
2018-09-01T11:53:50.992Z,59.80
2018-09-01T11:56:21.508Z,62.50
2018-09-01T11:58:57.427Z,62.30
2018-09-01T12:01:28.093Z,62.20
2018-09-01T12:03:58.137Z,58.70
2018-09-01T12:06:28.276Z,59.20
2018-09-01T12:08:58.284Z,61.90
2018-09-01T12:11:27.496Z,62.50
2018-09-01T12:13:57.447Z,62.20
2018-09-01T12:16:27.776Z,59.20
2018-09-01T12:18:57.190Z,60.60
2018-09-01T12:21:27.279Z,59.90
2018-09-01T12:23:56.356Z,58.90
2018-09-01T12:26:26.326Z,60.50
2018-09-01T12:28:56.326Z,56.80
2018-09-01T12:31:26.529Z,59.30
2018-09-01T12:33:56.278Z,58.30
2018-09-01T12:36:27.440Z,61.40
2018-09-01T12:38:56.811Z,60.30
2018-09-01T12:41:27.653Z,59.30
2018-09-01T12:43:57.759Z,58.80
2018-09-01T12:46:28.105Z,57.60
2018-09-01T12:48:57.599Z,57.50
2018-09-01T12:51:28.059Z,56.80
2018-09-01T12:53:58.358Z,57.60
2018-09-01T12:56:30.242Z,57.00
2018-09-01T12:59:00.455Z,55.50
2018-09-01T13:01:30.786Z,55.90
2018-09-01T13:04:00.441Z,56.20
2018-09-01T13:06:31.395Z,54.60
2018-09-01T13:09:01.634Z,53.20
2018-09-01T13:11:32.023Z,53.50
2018-09-01T13:14:02.808Z,51.40
2018-09-01T13:16:33.124Z,54.00
2018-09-01T13:19:02.712Z,53.60
2018-09-01T13:21:32.851Z,52.00
2018-09-01T13:24:03.641Z,53.10
2018-09-01T13:26:33.845Z,53.00
2018-09-01T13:29:04.533Z,54.10
2018-09-01T13:31:35.087Z,54.20
2018-09-01T13:34:05.425Z,53.00
2018-09-01T13:36:35.836Z,54.00
2018-09-01T13:39:06.958Z,53.20
2018-09-01T13:41:36.711Z,52.70
2018-09-01T13:44:06.507Z,53.30
2018-09-01T13:46:36.998Z,52.80
2018-09-01T13:49:07.552Z,52.60
2018-09-01T13:51:37.139Z,51.80
2018-09-01T13:54:06.982Z,51.20
2018-09-01T13:56:36.653Z,52.10
2018-09-01T13:59:06.565Z,51.30
2018-09-01T14:01:48.105Z,50.40
2018-09-01T14:04:17.755Z,52.10
2018-09-01T14:06:47.823Z,53.10
2018-09-01T14:09:18.079Z,52.20
2018-09-01T14:11:52.637Z,51.50
2018-09-01T14:14:22.476Z,51.80
2018-09-01T14:16:52.724Z,50.90
2018-09-01T14:19:22.994Z,50.10
2018-09-01T14:21:52.697Z,50.90
2018-09-01T14:24:22.072Z,49.70
2018-09-01T14:26:52.447Z,49.50
2018-09-01T14:29:22.619Z,51.80
2018-09-01T14:31:52.304Z,51.20
2018-09-01T14:34:22.641Z,52.30
2018-09-01T14:36:52.672Z,53.00
2018-09-01T14:39:22.507Z,52.30
2018-09-01T14:41:53.211Z,51.20
2018-09-01T14:44:23.337Z,51.90
2018-09-01T14:46:52.860Z,51.50
2018-09-01T14:49:23.238Z,52.60
2018-09-01T14:51:53.905Z,52.70
2018-09-01T14:54:24.569Z,54.90
2018-09-01T14:56:54.337Z,54.60
2018-09-01T14:59:24.614Z,57.50
2018-09-01T15:01:54.432Z,57.90
2018-09-01T15:04:24.540Z,57.10
2018-09-01T15:06:55.512Z,57.40
2018-09-01T15:09:28.093Z,57.50
2018-09-01T15:11:58.260Z,57.70
2018-09-01T15:14:28.940Z,56.60
2018-09-01T15:16:58.549Z,57.70
2018-09-01T15:19:28.404Z,58.30
2018-09-01T15:21:59.045Z,58.00
2018-09-01T15:24:29.532Z,58.50
2018-09-01T15:26:59.001Z,55.10
2018-09-01T15:29:28.268Z,53.70
2018-09-01T15:31:58.526Z,54.00
2018-09-01T15:34:28.224Z,54.00
2018-09-01T15:36:57.998Z,53.90
2018-09-01T15:39:27.695Z,54.60
2018-09-01T15:41:57.252Z,56.10
2018-09-01T15:44:26.883Z,56.50
2018-09-01T15:46:58.442Z,56.20
2018-09-01T15:49:29.669Z,57.30
2018-09-01T15:52:00.833Z,58.10
2018-09-01T15:54:30.687Z,58.40
2018-09-01T15:57:00.951Z,58.70
2018-09-01T15:59:30.884Z,59.40
2018-09-01T16:02:00.373Z,60.10
2018-09-01T16:04:30.201Z,59.10
2018-09-01T16:06:59.864Z,59.30
2018-09-01T16:09:29.630Z,58.90
2018-09-01T16:11:58.761Z,58.40
2018-09-01T16:14:28.673Z,58.40
2018-09-01T16:16:58.493Z,58.70
2018-09-01T16:19:28.062Z,59.10
2018-09-01T16:21:57.916Z,59.50
2018-09-01T16:24:29.209Z,60.20
2018-09-01T16:26:59.589Z,59.90
2018-09-01T16:29:34.189Z,60.20
2018-09-01T16:32:05.334Z,60.80
2018-09-01T16:34:35.461Z,60.80
2018-09-01T16:37:05.034Z,60.80
2018-09-01T16:39:34.684Z,61.20
2018-09-01T16:42:03.908Z,61.20
2018-09-01T16:44:34.030Z,61.50
2018-09-01T16:47:03.628Z,62.20
2018-09-01T16:49:33.358Z,62.60
2018-09-01T16:52:03.371Z,63.00
2018-09-01T16:54:33.068Z,63.30
2018-09-01T16:57:04.417Z,63.80
2018-09-01T16:59:33.983Z,64.30
2018-09-01T17:02:03.618Z,65.10
2018-09-01T17:04:33.227Z,64.40
2018-09-01T17:07:03.149Z,63.80
2018-09-01T17:09:32.882Z,64.00
2018-09-01T17:12:03.888Z,63.70
2018-09-01T17:14:33.259Z,63.90
2018-09-01T17:17:05.496Z,64.30
2018-09-01T17:19:36.224Z,64.80
2018-09-01T17:22:08.654Z,65.10
2018-09-01T17:24:38.981Z,65.00
2018-09-01T17:27:10.428Z,64.80
2018-09-01T17:29:41.050Z,65.00
2018-09-01T17:32:18.933Z,65.40
2018-09-01T17:34:50.201Z,65.80
2018-09-01T17:37:23.598Z,65.60
2018-09-01T17:39:53.659Z,65.30
2018-09-01T17:42:23.270Z,65.00
2018-09-01T17:44:54.527Z,64.80
2018-09-01T17:47:26.542Z,64.80
2018-09-01T17:50:03.140Z,65.00
2018-09-01T17:52:33.140Z,65.50
2018-09-01T17:55:03.178Z,66.10
2018-09-01T17:57:33.089Z,66.70
2018-09-01T18:00:03.206Z,67.10
2018-09-01T18:02:33.175Z,67.30
2018-09-01T18:05:02.993Z,66.30
2018-09-01T18:07:32.833Z,65.80
2018-09-01T18:10:02.901Z,65.90
2018-09-01T18:12:32.699Z,65.60
2018-09-01T18:15:02.628Z,66.00
2018-09-01T18:17:31.821Z,66.60
2018-09-01T18:20:01.916Z,66.60
2018-09-01T18:22:31.906Z,66.50
2018-09-01T18:25:01.727Z,66.20
2018-09-01T18:27:31.547Z,66.30
2018-09-01T18:30:01.355Z,67.00
2018-09-01T18:32:31.757Z,67.20
2018-09-01T18:35:01.221Z,67.60
2018-09-01T18:37:31.962Z,67.20
2018-09-01T18:40:01.465Z,67.00
2018-09-01T18:42:32.402Z,66.90
2018-09-01T18:45:02.128Z,67.20
2018-09-01T18:47:32.593Z,67.30
2018-09-01T18:50:02.310Z,67.50
2018-09-01T18:52:32.984Z,67.80
2018-09-01T18:55:02.725Z,68.00
2018-09-01T18:57:32.741Z,68.10
2018-09-01T19:00:02.453Z,68.50
2018-09-01T19:02:33.336Z,68.50
2018-09-01T19:05:03.317Z,67.20
2018-09-01T19:07:33.572Z,66.80
2018-09-01T19:10:03.240Z,66.10
2018-09-01T19:12:33.041Z,66.70
2018-09-01T19:15:03.750Z,67.20
2018-09-01T19:17:33.620Z,67.00
2018-09-01T19:20:03.898Z,67.50
2018-09-01T19:22:34.830Z,66.80
2018-09-01T19:25:05.612Z,67.70
2018-09-01T19:27:35.852Z,68.80
2018-09-01T19:30:05.161Z,69.70
2018-09-01T19:32:36.359Z,70.20
2018-09-01T19:35:05.733Z,70.00
2018-09-01T19:37:39.079Z,70.10
2018-09-01T19:40:09.856Z,70.40
2018-09-01T19:42:39.902Z,70.70
2018-09-01T19:45:10.719Z,70.50
2018-09-01T19:47:40.635Z,70.40
2018-09-01T19:50:10.389Z,70.30
2018-09-01T19:52:40.105Z,70.80
2018-09-01T19:55:12.584Z,71.20
2018-09-01T19:57:43.003Z,71.30
2018-09-01T20:00:13.169Z,71.60
2018-09-01T20:02:42.585Z,71.80
2018-09-01T20:05:19.038Z,71.90
2018-09-01T20:07:49.113Z,72.00
2018-09-01T20:10:20.641Z,72.00
2018-09-01T20:12:50.394Z,71.80
2018-09-01T20:15:20.221Z,71.50
2018-09-01T20:17:50.794Z,71.40
2018-09-01T20:20:20.497Z,71.30
2018-09-01T20:22:50.502Z,71.40
2018-09-01T20:25:20.776Z,71.30
2018-09-01T20:27:50.178Z,71.40
2018-09-01T20:30:19.745Z,71.30
2018-09-01T20:32:50.879Z,71.20
2018-09-01T20:35:26.375Z,71.20
2018-09-01T20:37:55.883Z,71.00
2018-09-01T20:40:25.294Z,70.90
2018-09-01T20:42:55.903Z,70.90
2018-09-01T20:45:25.601Z,71.00
2018-09-01T20:47:57.538Z,70.90
2018-09-01T20:50:27.906Z,70.50
2018-09-01T20:52:57.346Z,70.10
2018-09-01T20:55:29.098Z,70.40
2018-09-01T20:57:58.622Z,70.30
2018-09-01T21:00:28.040Z,70.10
2018-09-01T21:02:57.135Z,70.70
2018-09-01T21:05:26.144Z,71.30
2018-09-01T21:07:55.643Z,71.80
2018-09-01T21:10:25.137Z,71.70
2018-09-01T21:12:54.789Z,71.50
2018-09-01T21:15:27.831Z,71.70
2018-09-01T21:17:57.188Z,71.60
2018-09-01T21:20:26.538Z,71.60
2018-09-01T21:22:56.467Z,71.70
2018-09-01T21:25:26.419Z,71.60
2018-09-01T21:27:56.305Z,71.50
2018-09-01T21:30:25.873Z,71.50
2018-09-01T21:32:55.424Z,71.40
2018-09-01T21:35:25.284Z,71.40
2018-09-01T21:37:54.701Z,71.40
2018-09-01T21:40:24.417Z,71.30
2018-09-01T21:42:53.703Z,71.30
2018-09-01T21:45:23.205Z,71.30
2018-09-01T21:47:53.130Z,71.30
2018-09-01T21:50:22.877Z,71.40
2018-09-01T21:52:52.247Z,71.40
2018-09-01T21:55:22.744Z,71.60
2018-09-01T21:57:52.092Z,71.50
2018-09-01T22:00:21.528Z,71.70
2018-09-01T22:02:53.740Z,72.00
2018-09-01T22:05:23.693Z,72.20
2018-09-01T22:07:52.988Z,72.20
2018-09-01T22:10:22.505Z,71.90
2018-09-01T22:12:52.083Z,71.80
2018-09-01T22:15:21.632Z,71.40
2018-09-01T22:17:50.920Z,71.40
2018-09-01T22:20:26.212Z,71.30
2018-09-01T22:22:55.168Z,71.50
2018-09-01T22:25:24.738Z,71.80
2018-09-01T22:27:53.697Z,72.20
2018-09-01T22:30:23.113Z,72.10
2018-09-01T22:32:52.313Z,73.10
2018-09-01T22:35:23.088Z,72.30
2018-09-01T22:37:52.737Z,72.60
2018-09-01T22:40:22.416Z,73.60
2018-09-01T22:42:51.956Z,74.10
2018-09-01T22:45:21.797Z,74.80
2018-09-01T22:47:51.681Z,73.90
2018-09-01T22:50:21.231Z,73.80
2018-09-01T22:52:50.497Z,73.90
2018-09-01T22:55:20.094Z,73.90
2018-09-01T22:57:49.683Z,74.80
2018-09-01T23:00:19.110Z,74.10
2018-09-01T23:02:48.630Z,73.60
2018-09-01T23:05:20.209Z,73.40
2018-09-01T23:07:49.875Z,73.20
2018-09-01T23:10:20.178Z,73.00
2018-09-01T23:12:50.688Z,72.60
2018-09-01T23:15:19.960Z,72.60
2018-09-01T23:17:49.393Z,72.50
2018-09-01T23:20:18.821Z,72.60
2018-09-01T23:22:48.586Z,72.90
2018-09-01T23:25:17.869Z,73.20
2018-09-01T23:27:47.656Z,73.40
2018-09-01T23:30:17.006Z,73.40
2018-09-01T23:32:45.888Z,73.30
2018-09-01T23:35:15.115Z,73.20
2018-09-01T23:37:44.345Z,73.20
2018-09-01T23:40:14.014Z,73.10
2018-09-01T23:42:43.173Z,73.00
2018-09-01T23:45:16.916Z,72.90
2018-09-01T23:47:46.345Z,72.90
2018-09-01T23:50:16.038Z,72.90
2018-09-01T23:52:45.454Z,73.10
2018-09-01T23:55:16.003Z,73.10
2018-09-01T23:57:45.123Z,73.00
